SYN001 EHAM-EGLL
Flight info
| Callsign | SYN001 |
|---|---|
| Flight time | 0h 50m |
| Altitude | 24000 |
| Route | IDRID L980 LOGAN |
| Aircraft | BCS3/M-SBDE2E3GIRWXY/LB1 |
Departure
| Time | 2026-05-05 18:37 |
|---|---|
| Airport | Amsterdam Airport Schiphol (EHAM) |
Arrival
| Time | 2026-05-05 19:27 |
|---|---|
| Airport | London Heathrow Airport (EGLL) |
| Time | Latitude | Longitude | Altitude | Speed | Heading |
|---|---|---|---|---|---|
| 2026-05-05 17:53 | 52.30394 | 4.76164 | 0 ft | 0 kts | 59° |
| 2026-05-05 18:22 | 52.30393 | 4.76162 | 0 ft | 2 kts | 59° |
| 2026-05-05 18:22 | 52.30386 | 4.76142 | 0 ft | 2 kts | 59° |
| 2026-05-05 18:22 | 52.30377 | 4.76118 | -1 ft | 2 kts | 59° |
| 2026-05-05 18:23 | 52.30369 | 4.76096 | 0 ft | 2 kts | 70° |
| 2026-05-05 18:23 | 52.30366 | 4.76070 | 0 ft | 2 kts | 96° |
| 2026-05-05 18:23 | 52.30370 | 4.76044 | 0 ft | 2 kts | 124° |
| 2026-05-05 18:23 | 52.30374 | 4.76036 | 0 ft | 0 kts | 135° |
| 2026-05-05 18:27 | 52.30367 | 4.76047 | 0 ft | 5 kts | 135° |
| 2026-05-05 18:27 | 52.30321 | 4.76114 | 1 ft | 11 kts | 142° |
| 2026-05-05 18:27 | 52.30258 | 4.76197 | 1 ft | 12 kts | 140° |
| 2026-05-05 18:27 | 52.30191 | 4.76218 | 1 ft | 9 kts | 214° |
| 2026-05-05 18:28 | 52.30092 | 4.75991 | -2 ft | 16 kts | 237° |
| 2026-05-05 18:28 | 52.30032 | 4.75835 | -2 ft | 17 kts | 237° |
| 2026-05-05 18:28 | 52.29967 | 4.75662 | 0 ft | 18 kts | 239° |
| 2026-05-05 18:29 | 52.29900 | 4.75491 | 1 ft | 18 kts | 236° |
| 2026-05-05 18:29 | 52.29838 | 4.75307 | 3 ft | 18 kts | 256° |
| 2026-05-05 18:29 | 52.29885 | 4.75120 | 0 ft | 20 kts | 312° |
| 2026-05-05 18:29 | 52.29977 | 4.74950 | 3 ft | 19 kts | 311° |
| 2026-05-05 18:30 | 52.30058 | 4.74796 | 7 ft | 17 kts | 310° |
| 2026-05-05 18:30 | 52.30132 | 4.74656 | 10 ft | 16 kts | 311° |
| 2026-05-05 18:30 | 52.30188 | 4.74588 | 10 ft | 3 kts | 314° |
| 2026-05-05 18:30 | 52.30204 | 4.74541 | 11 ft | 7 kts | 297° |
| 2026-05-05 18:31 | 52.30235 | 4.74468 | 9 ft | 11 kts | 309° |
| 2026-05-05 18:31 | 52.30276 | 4.74386 | 7 ft | 1 kts | 310° |
| 2026-05-05 18:31 | 52.30264 | 4.74408 | 4 ft | 0 kts | 310° |
| 2026-05-05 18:31 | 52.30314 | 4.74312 | 6 ft | 18 kts | 306° |
| 2026-05-05 18:32 | 52.30334 | 4.74111 | 3 ft | 14 kts | 252° |
| 2026-05-05 18:32 | 52.30288 | 4.74002 | 1 ft | 5 kts | 220° |
| 2026-05-05 18:32 | 52.30252 | 4.73952 | -1 ft | 9 kts | 220° |
| 2026-05-05 18:32 | 52.30207 | 4.73885 | -2 ft | 1 kts | 230° |
| 2026-05-05 18:33 | 52.30198 | 4.73867 | -2 ft | 3 kts | 234° |
| 2026-05-05 18:33 | 52.30192 | 4.73840 | -1 ft | 0 kts | 258° |
| 2026-05-05 18:34 | 52.30196 | 4.73778 | -1 ft | 9 kts | 294° |
| 2026-05-05 18:35 | 52.30264 | 4.73736 | -4 ft | 11 kts | 4° |
| 2026-05-05 18:35 | 52.30268 | 4.73737 | -5 ft | 0 kts | 4° |
| 2026-05-05 18:36 | 52.30272 | 4.73737 | -5 ft | 2 kts | 4° |
| 2026-05-05 18:37 | 52.30325 | 4.73744 | -6 ft | 24 kts | 4° |
| 2026-05-05 18:37 | 52.30745 | 4.73787 | 1 ft | 98 kts | 2° |
| 2026-05-05 18:37 | 52.31642 | 4.73866 | 279 ft | 139 kts | 5° |
| 2026-05-05 18:37 | 52.32610 | 4.73949 | 1223 ft | 140 kts | 6° |
| 2026-05-05 18:38 | 52.33595 | 4.74034 | 2195 ft | 147 kts | 6° |
| 2026-05-05 18:38 | 52.34689 | 4.74130 | 3022 ft | 168 kts | 6° |
| 2026-05-05 18:38 | 52.35913 | 4.74249 | 3925 ft | 184 kts | 6° |
| 2026-05-05 18:38 | 52.37228 | 4.73914 | 4791 ft | 202 kts | 341° |
| 2026-05-05 18:39 | 52.38593 | 4.73001 | 5575 ft | 222 kts | 340° |
| 2026-05-05 18:39 | 52.40142 | 4.72017 | 5901 ft | 260 kts | 340° |
| 2026-05-05 18:39 | 52.41882 | 4.70947 | 5926 ft | 266 kts | 340° |
| 2026-05-05 18:39 | 52.43590 | 4.69900 | 5923 ft | 261 kts | 340° |
| 2026-05-05 18:40 | 52.45303 | 4.68847 | 5915 ft | 263 kts | 340° |
| 2026-05-05 18:40 | 52.46972 | 4.67676 | 5897 ft | 263 kts | 327° |
| 2026-05-05 18:40 | 52.48112 | 4.65339 | 5921 ft | 269 kts | 293° |
| 2026-05-05 18:40 | 52.48253 | 4.62288 | 5929 ft | 275 kts | 259° |
| 2026-05-05 18:41 | 52.47439 | 4.59489 | 5933 ft | 279 kts | 238° |
| 2026-05-05 18:41 | 52.46338 | 4.56847 | 5918 ft | 281 kts | 237° |
| 2026-05-05 18:41 | 52.45203 | 4.54185 | 6164 ft | 293 kts | 236° |
| 2026-05-05 18:41 | 52.44056 | 4.51504 | 7565 ft | 281 kts | 236° |
| 2026-05-05 18:42 | 52.42935 | 4.48886 | 8788 ft | 283 kts | 236° |
| 2026-05-05 18:42 | 52.41799 | 4.46234 | 9871 ft | 286 kts | 236° |
| 2026-05-05 18:42 | 52.40631 | 4.43512 | 10633 ft | 299 kts | 236° |
| 2026-05-05 18:42 | 52.39400 | 4.40645 | 11201 ft | 314 kts | 236° |
| 2026-05-05 18:43 | 52.38116 | 4.37658 | 11871 ft | 323 kts | 236° |
| 2026-05-05 18:43 | 52.36828 | 4.34667 | 12643 ft | 330 kts | 235° |
| 2026-05-05 18:43 | 52.35479 | 4.31535 | 12924 ft | 340 kts | 235° |
| 2026-05-05 18:43 | 52.34135 | 4.28421 | 12937 ft | 331 kts | 235° |
| 2026-05-05 18:44 | 52.32810 | 4.25355 | 12929 ft | 330 kts | 235° |
| 2026-05-05 18:44 | 52.31480 | 4.22280 | 12921 ft | 331 kts | 235° |
| 2026-05-05 18:44 | 52.30150 | 4.19209 | 12923 ft | 330 kts | 235° |
| 2026-05-05 18:44 | 52.28822 | 4.16149 | 12916 ft | 331 kts | 235° |
| 2026-05-05 18:45 | 52.27489 | 4.13078 | 12916 ft | 331 kts | 235° |
| 2026-05-05 18:45 | 52.26154 | 4.10008 | 12922 ft | 331 kts | 235° |
| 2026-05-05 18:45 | 52.24820 | 4.06940 | 12918 ft | 331 kts | 235° |
| 2026-05-05 18:45 | 52.23483 | 4.03871 | 12917 ft | 331 kts | 235° |
| 2026-05-05 18:46 | 52.22150 | 4.00815 | 12921 ft | 331 kts | 235° |
| 2026-05-05 18:46 | 52.20812 | 3.97751 | 12921 ft | 332 kts | 235° |
| 2026-05-05 18:46 | 52.19472 | 3.94684 | 12916 ft | 331 kts | 235° |
| 2026-05-05 18:46 | 52.18136 | 3.91632 | 12917 ft | 331 kts | 235° |
| 2026-05-05 18:47 | 52.16796 | 3.88574 | 12921 ft | 332 kts | 235° |
| 2026-05-05 18:47 | 52.15469 | 3.85547 | 12950 ft | 337 kts | 235° |
| 2026-05-05 18:47 | 52.14117 | 3.82467 | 13956 ft | 332 kts | 235° |
| 2026-05-05 18:47 | 52.12754 | 3.79365 | 14688 ft | 337 kts | 234° |
| 2026-05-05 18:48 | 52.11381 | 3.76242 | 15434 ft | 342 kts | 234° |
| 2026-05-05 18:48 | 52.09991 | 3.73087 | 16194 ft | 346 kts | 234° |
| 2026-05-05 18:48 | 52.08580 | 3.69886 | 16965 ft | 349 kts | 234° |
| 2026-05-05 18:48 | 52.07149 | 3.66644 | 17717 ft | 353 kts | 234° |
| 2026-05-05 18:49 | 52.05706 | 3.63378 | 18419 ft | 357 kts | 234° |
| 2026-05-05 18:49 | 52.04249 | 3.60085 | 19107 ft | 359 kts | 234° |
| 2026-05-05 18:49 | 52.02787 | 3.56783 | 19782 ft | 361 kts | 233° |
| 2026-05-05 18:49 | 52.01333 | 3.53501 | 20401 ft | 364 kts | 233° |
| 2026-05-05 18:50 | 51.99853 | 3.50159 | 21059 ft | 366 kts | 233° |
| 2026-05-05 18:50 | 51.98355 | 3.46809 | 21692 ft | 369 kts | 233° |
| 2026-05-05 18:50 | 51.96838 | 3.43453 | 22322 ft | 371 kts | 233° |
| 2026-05-05 18:50 | 51.95298 | 3.40050 | 22951 ft | 373 kts | 233° |
| 2026-05-05 18:51 | 51.93757 | 3.36649 | 23534 ft | 376 kts | 232° |
| 2026-05-05 18:51 | 51.92197 | 3.33208 | 23871 ft | 383 kts | 232° |
| 2026-05-05 18:51 | 51.90597 | 3.29686 | 23936 ft | 387 kts | 232° |
| 2026-05-05 18:51 | 51.89025 | 3.26226 | 23932 ft | 375 kts | 232° |
| 2026-05-05 18:52 | 51.87484 | 3.22838 | 23934 ft | 374 kts | 232° |
| 2026-05-05 18:52 | 51.85959 | 3.19377 | 23927 ft | 381 kts | 238° |
| 2026-05-05 18:52 | 51.85013 | 3.15361 | 23929 ft | 383 kts | 256° |
| 2026-05-05 18:52 | 51.84591 | 3.11176 | 23934 ft | 381 kts | 261° |
| 2026-05-05 18:53 | 51.84279 | 3.06906 | 23929 ft | 383 kts | 262° |
| 2026-05-05 18:53 | 51.83992 | 3.02608 | 23931 ft | 384 kts | 262° |
| 2026-05-05 18:53 | 51.83709 | 2.98322 | 23929 ft | 383 kts | 262° |
| 2026-05-05 18:53 | 51.83424 | 2.94034 | 23927 ft | 383 kts | 262° |
| 2026-05-05 18:54 | 51.83140 | 2.89763 | 23924 ft | 383 kts | 262° |
| 2026-05-05 18:54 | 51.82854 | 2.85481 | 23926 ft | 382 kts | 262° |
| 2026-05-05 18:54 | 51.82568 | 2.81212 | 23927 ft | 383 kts | 262° |
| 2026-05-05 18:54 | 51.82280 | 2.76927 | 23929 ft | 383 kts | 262° |
| 2026-05-05 18:55 | 51.81990 | 2.72646 | 23929 ft | 382 kts | 262° |
| 2026-05-05 18:55 | 51.81701 | 2.68386 | 23929 ft | 382 kts | 262° |
| 2026-05-05 18:55 | 51.81408 | 2.64105 | 23931 ft | 383 kts | 262° |
| 2026-05-05 18:55 | 51.81114 | 2.59835 | 23934 ft | 383 kts | 262° |
| 2026-05-05 18:56 | 51.80822 | 2.55607 | 23934 ft | 382 kts | 262° |
| 2026-05-05 18:56 | 51.80525 | 2.51330 | 23931 ft | 383 kts | 262° |
| 2026-05-05 18:56 | 51.80227 | 2.47064 | 23930 ft | 383 kts | 262° |
| 2026-05-05 18:56 | 51.79927 | 2.42794 | 23932 ft | 383 kts | 262° |
| 2026-05-05 18:57 | 51.79626 | 2.38526 | 23934 ft | 382 kts | 262° |
| 2026-05-05 18:57 | 51.79323 | 2.34254 | 23936 ft | 382 kts | 262° |
| 2026-05-05 18:57 | 51.79019 | 2.29990 | 23932 ft | 382 kts | 262° |
| 2026-05-05 18:57 | 51.78713 | 2.25723 | 23935 ft | 382 kts | 263° |
| 2026-05-05 18:58 | 51.78412 | 2.21464 | 23935 ft | 382 kts | 263° |
| 2026-05-05 18:58 | 51.78156 | 2.17191 | 23932 ft | 382 kts | 264° |
| 2026-05-05 18:58 | 51.77907 | 2.12914 | 23932 ft | 381 kts | 264° |
| 2026-05-05 18:58 | 51.77657 | 2.08635 | 23937 ft | 383 kts | 264° |
| 2026-05-05 18:59 | 51.77405 | 2.04358 | 23932 ft | 384 kts | 264° |
| 2026-05-05 18:59 | 51.77151 | 2.00075 | 23936 ft | 383 kts | 264° |
| 2026-05-05 18:59 | 51.76895 | 1.95795 | 23933 ft | 383 kts | 264° |
| 2026-05-05 18:59 | 51.76636 | 1.91501 | 23936 ft | 385 kts | 264° |
| 2026-05-05 19:00 | 51.76376 | 1.87210 | 23943 ft | 384 kts | 264° |
| 2026-05-05 19:00 | 51.76116 | 1.82968 | 23947 ft | 385 kts | 264° |
| 2026-05-05 19:00 | 51.75851 | 1.78659 | 23942 ft | 385 kts | 264° |
| 2026-05-05 19:00 | 51.75585 | 1.74362 | 23943 ft | 385 kts | 264° |
| 2026-05-05 19:01 | 51.75316 | 1.70051 | 23939 ft | 386 kts | 264° |
| 2026-05-05 19:01 | 51.75046 | 1.65736 | 23940 ft | 386 kts | 264° |
| 2026-05-05 19:01 | 51.74775 | 1.61438 | 23932 ft | 386 kts | 264° |
| 2026-05-05 19:01 | 51.74498 | 1.57083 | 23491 ft | 392 kts | 264° |
| 2026-05-05 19:02 | 51.74220 | 1.52718 | 22867 ft | 391 kts | 264° |
| 2026-05-05 19:02 | 51.73942 | 1.48373 | 22257 ft | 387 kts | 264° |
| 2026-05-05 19:02 | 51.73666 | 1.44091 | 21721 ft | 381 kts | 264° |
| 2026-05-05 19:02 | 51.73391 | 1.39854 | 21201 ft | 376 kts | 264° |
| 2026-05-05 19:03 | 51.73119 | 1.35674 | 20701 ft | 371 kts | 264° |
| 2026-05-05 19:03 | 51.72848 | 1.31550 | 20223 ft | 369 kts | 264° |
| 2026-05-05 19:03 | 51.72577 | 1.27439 | 19739 ft | 368 kts | 264° |
| 2026-05-05 19:03 | 51.72306 | 1.23340 | 19266 ft | 366 kts | 264° |
| 2026-05-05 19:04 | 51.72035 | 1.19281 | 18800 ft | 363 kts | 264° |
| 2026-05-05 19:04 | 51.71768 | 1.15296 | 18339 ft | 361 kts | 264° |
| 2026-05-05 19:04 | 51.71496 | 1.11263 | 17823 ft | 359 kts | 264° |
| 2026-05-05 19:04 | 51.71227 | 1.07292 | 17296 ft | 352 kts | 264° |
| 2026-05-05 19:05 | 51.70961 | 1.03373 | 16834 ft | 355 kts | 264° |
| 2026-05-05 19:05 | 51.70690 | 0.99413 | 16365 ft | 352 kts | 264° |
| 2026-05-05 19:05 | 51.70423 | 0.95534 | 16010 ft | 344 kts | 264° |
| 2026-05-05 19:05 | 51.70162 | 0.91751 | 15929 ft | 343 kts | 264° |
| 2026-05-05 19:06 | 51.69890 | 0.87830 | 15432 ft | 352 kts | 264° |
| 2026-05-05 19:06 | 51.69621 | 0.83978 | 14892 ft | 348 kts | 264° |
| 2026-05-05 19:06 | 51.69350 | 0.80116 | 14393 ft | 343 kts | 264° |
| 2026-05-05 19:06 | 51.69083 | 0.76327 | 13929 ft | 337 kts | 264° |
| 2026-05-05 19:07 | 51.68819 | 0.72604 | 13455 ft | 332 kts | 264° |
| 2026-05-05 19:07 | 51.68557 | 0.68926 | 12986 ft | 330 kts | 264° |
| 2026-05-05 19:07 | 51.68295 | 0.65261 | 12544 ft | 328 kts | 264° |
| 2026-05-05 19:07 | 51.68034 | 0.61625 | 12114 ft | 326 kts | 264° |
| 2026-05-05 19:08 | 51.67774 | 0.58017 | 11751 ft | 321 kts | 264° |
| 2026-05-05 19:08 | 51.67520 | 0.54515 | 11449 ft | 306 kts | 264° |
| 2026-05-05 19:08 | 51.67279 | 0.51205 | 11162 ft | 293 kts | 264° |
| 2026-05-05 19:08 | 51.67042 | 0.47951 | 10876 ft | 293 kts | 264° |
| 2026-05-05 19:09 | 51.66804 | 0.44695 | 10542 ft | 292 kts | 265° |
| 2026-05-05 19:09 | 51.66566 | 0.41452 | 10197 ft | 294 kts | 265° |
| 2026-05-05 19:09 | 51.66326 | 0.38195 | 9824 ft | 291 kts | 264° |
| 2026-05-05 19:09 | 51.66088 | 0.34980 | 9415 ft | 286 kts | 265° |
| 2026-05-05 19:10 | 51.65852 | 0.31812 | 9043 ft | 283 kts | 265° |
| 2026-05-05 19:10 | 51.65622 | 0.28729 | 8936 ft | 280 kts | 265° |
| 2026-05-05 19:10 | 51.65386 | 0.25560 | 8948 ft | 295 kts | 265° |
| 2026-05-05 19:10 | 51.65149 | 0.22304 | 8934 ft | 285 kts | 265° |
| 2026-05-05 19:11 | 51.64944 | 0.19170 | 8938 ft | 281 kts | 266° |
| 2026-05-05 19:11 | 51.64740 | 0.16008 | 8941 ft | 284 kts | 266° |
| 2026-05-05 19:11 | 51.64536 | 0.12876 | 8934 ft | 274 kts | 266° |
| 2026-05-05 19:11 | 51.64337 | 0.09912 | 8928 ft | 258 kts | 266° |
| 2026-05-05 19:12 | 51.64146 | 0.07100 | 8931 ft | 249 kts | 266° |
| 2026-05-05 19:12 | 51.63958 | 0.04327 | 8940 ft | 250 kts | 266° |
| 2026-05-05 19:12 | 51.63768 | 0.01547 | 8940 ft | 249 kts | 266° |
| 2026-05-05 19:12 | 51.63577 | -0.01227 | 8940 ft | 249 kts | 265° |
| 2026-05-05 19:13 | 51.63388 | -0.03999 | 8938 ft | 249 kts | 266° |
| 2026-05-05 19:13 | 51.63202 | -0.06735 | 8936 ft | 249 kts | 266° |
| 2026-05-05 19:13 | 51.63013 | -0.09503 | 9006 ft | 249 kts | 266° |
| 2026-05-05 19:13 | 51.62824 | -0.12271 | 9011 ft | 249 kts | 265° |
| 2026-05-05 19:14 | 51.62635 | -0.15033 | 9010 ft | 247 kts | 266° |
| 2026-05-05 19:14 | 51.62446 | -0.17780 | 8644 ft | 249 kts | 266° |
| 2026-05-05 19:14 | 51.62258 | -0.20515 | 8359 ft | 246 kts | 266° |
| 2026-05-05 19:14 | 51.62068 | -0.23261 | 8070 ft | 245 kts | 266° |
| 2026-05-05 19:15 | 51.61880 | -0.25959 | 8015 ft | 242 kts | 266° |
| 2026-05-05 19:15 | 51.61693 | -0.28667 | 8016 ft | 245 kts | 266° |
| 2026-05-05 19:15 | 51.61506 | -0.31401 | 7936 ft | 245 kts | 265° |
| 2026-05-05 19:15 | 51.61320 | -0.34118 | 7938 ft | 245 kts | 266° |
| 2026-05-05 19:16 | 51.61134 | -0.36841 | 7939 ft | 245 kts | 266° |
| 2026-05-05 19:16 | 51.60948 | -0.39563 | 7936 ft | 245 kts | 266° |
| 2026-05-05 19:16 | 51.60761 | -0.42284 | 7941 ft | 245 kts | 266° |
| 2026-05-05 19:16 | 51.60575 | -0.45009 | 7936 ft | 245 kts | 265° |
| 2026-05-05 19:17 | 51.60388 | -0.47729 | 7938 ft | 245 kts | 266° |
| 2026-05-05 19:17 | 51.60202 | -0.50452 | 7941 ft | 245 kts | 266° |
| 2026-05-05 19:17 | 51.60018 | -0.53142 | 7933 ft | 245 kts | 266° |
| 2026-05-05 19:17 | 51.59832 | -0.55858 | 7930 ft | 245 kts | 266° |
| 2026-05-05 19:18 | 51.59646 | -0.58587 | 7937 ft | 245 kts | 266° |
| 2026-05-05 19:18 | 51.59462 | -0.61308 | 7937 ft | 242 kts | 265° |
| 2026-05-05 19:18 | 51.59280 | -0.64007 | 7552 ft | 245 kts | 266° |
| 2026-05-05 19:18 | 51.59098 | -0.66703 | 7276 ft | 243 kts | 266° |
| 2026-05-05 19:19 | 51.58916 | -0.69406 | 6997 ft | 241 kts | 266° |
| 2026-05-05 19:19 | 51.58737 | -0.72101 | 6684 ft | 242 kts | 266° |
| 2026-05-05 19:19 | 51.58558 | -0.74790 | 6351 ft | 243 kts | 265° |
| 2026-05-05 19:19 | 51.58383 | -0.77472 | 6067 ft | 241 kts | 265° |
| 2026-05-05 19:20 | 51.58206 | -0.80142 | 5769 ft | 240 kts | 266° |
| 2026-05-05 19:20 | 51.57869 | -0.82767 | 5372 ft | 244 kts | 244° |
| 2026-05-05 19:20 | 51.56707 | -0.84657 | 5275 ft | 236 kts | 206° |
| 2026-05-05 19:20 | 51.55171 | -0.85162 | 5242 ft | 219 kts | 181° |
| 2026-05-05 19:21 | 51.53686 | -0.85243 | 5179 ft | 207 kts | 181° |
| 2026-05-05 19:21 | 51.52275 | -0.85316 | 5031 ft | 201 kts | 181° |
| 2026-05-05 19:21 | 51.50886 | -0.85202 | 4761 ft | 199 kts | 161° |
| 2026-05-05 19:21 | 51.49782 | -0.84017 | 4522 ft | 194 kts | 126° |
| 2026-05-05 19:22 | 51.49084 | -0.82197 | 4273 ft | 191 kts | 116° |
| 2026-05-05 19:22 | 51.48439 | -0.80328 | 4012 ft | 191 kts | 115° |
| 2026-05-05 19:22 | 51.47990 | -0.78285 | 3763 ft | 194 kts | 100° |
| 2026-05-05 19:22 | 51.47752 | -0.76200 | 3502 ft | 186 kts | 95° |
| 2026-05-05 19:23 | 51.47609 | -0.74196 | 3258 ft | 177 kts | 91° |
| 2026-05-05 19:23 | 51.47551 | -0.72906 | 3100 ft | 172 kts | 90° |
| 2026-05-05 19:23 | 51.47500 | -0.71030 | 2872 ft | 166 kts | 88° |
| 2026-05-05 19:23 | 51.47479 | -0.68636 | 2582 ft | 158 kts | 86° |
| 2026-05-05 19:24 | 51.47486 | -0.66888 | 2384 ft | 152 kts | 86° |
| 2026-05-05 19:24 | 51.47496 | -0.65770 | 2230 ft | 145 kts | 85° |
| 2026-05-05 19:24 | 51.47558 | -0.64225 | 2047 ft | 138 kts | 80° |
| 2026-05-05 19:24 | 51.47645 | -0.62669 | 1861 ft | 138 kts | 85° |
| 2026-05-05 19:25 | 51.47658 | -0.61139 | 1676 ft | 137 kts | 87° |
| 2026-05-05 19:25 | 51.47659 | -0.59631 | 1491 ft | 136 kts | 87° |
| 2026-05-05 19:25 | 51.47668 | -0.58117 | 1310 ft | 136 kts | 87° |
| 2026-05-05 19:25 | 51.47680 | -0.56592 | 1122 ft | 135 kts | 87° |
| 2026-05-05 19:26 | 51.47688 | -0.55088 | 932 ft | 136 kts | 87° |
| 2026-05-05 19:26 | 51.47698 | -0.53554 | 744 ft | 138 kts | 87° |
| 2026-05-05 19:26 | 51.47708 | -0.52019 | 565 ft | 137 kts | 86° |
| 2026-05-05 19:26 | 51.47721 | -0.50496 | 356 ft | 137 kts | 86° |
| 2026-05-05 19:27 | 51.47741 | -0.48965 | 175 ft | 136 kts | 85° |
| 2026-05-05 19:27 | 51.47755 | -0.47520 | 89 ft | 110 kts | 90° |
| 2026-05-05 19:27 | 51.47754 | -0.46561 | 95 ft | 70 kts | 91° |
| 2026-05-05 19:27 | 51.47757 | -0.45965 | 89 ft | 46 kts | 90° |
| 2026-05-05 19:28 | 51.47748 | -0.45534 | 88 ft | 21 kts | 116° |
| 2026-05-05 19:28 | 51.47654 | -0.45468 | 87 ft | 0 kts | 181° |
| 2026-05-05 19:28 | 51.47648 | -0.45469 | 87 ft | 1 kts | 181° |
| 2026-05-05 19:28 | 51.47645 | -0.45469 | 87 ft | 0 kts | 181° |